createdAt,value
2022-10-29T00:00:57.002Z,16.80
2022-10-29T00:03:25.025Z,16.63
2022-10-29T00:05:57.293Z,16.10
2022-10-29T00:08:24.748Z,17.42
2022-10-29T00:10:51.741Z,19.95
2022-10-29T00:13:18.817Z,18.52
2022-10-29T00:15:45.840Z,19.15
2022-10-29T00:18:12.893Z,16.20
2022-10-29T00:20:39.898Z,19.05
2022-10-29T00:23:06.930Z,19.17
2022-10-29T00:25:34.051Z,15.30
2022-10-29T00:28:01.016Z,16.60
2022-10-29T00:30:29.063Z,17.60
2022-10-29T00:32:56.991Z,18.48
2022-10-29T00:35:24.190Z,12.40
2022-10-29T00:37:51.139Z,15.48
2022-10-29T00:40:19.062Z,16.85
2022-10-29T00:42:46.052Z,14.65
2022-10-29T00:45:19.907Z,16.80
2022-10-29T00:47:50.148Z,18.55
2022-10-29T00:50:17.730Z,15.75
2022-10-29T00:52:49.311Z,20.23
2022-10-29T00:55:17.451Z,16.60
2022-10-29T00:57:50.455Z,17.63
2022-10-29T01:00:19.572Z,19.02
2022-10-29T01:02:46.799Z,18.20
2022-10-29T01:05:21.657Z,18.20
2022-10-29T01:07:48.669Z,20.48
2022-10-29T01:10:16.820Z,20.10
2022-10-29T01:16:05.008Z,22.98
2022-10-29T01:18:41.970Z,24.90
2022-10-29T01:21:38.771Z,22.38
2022-10-29T01:24:11.647Z,23.25
2022-10-29T01:27:12.275Z,18.17
2022-10-29T01:30:02.503Z,17.20
2022-10-29T01:32:44.413Z,21.85
2022-10-29T01:35:22.815Z,18.55
2022-10-29T01:38:16.659Z,19.98
2022-10-29T01:40:50.055Z,20.15
2022-10-29T01:43:31.303Z,17.35
2022-10-29T01:46:05.875Z,18.10
2022-10-29T01:48:37.396Z,16.50
2022-10-29T01:51:11.137Z,19.73
2022-10-29T01:53:39.135Z,17.85
2022-10-29T01:56:06.466Z,13.80
2022-10-29T01:58:37.038Z,18.45
2022-10-29T02:01:11.539Z,18.17
2022-10-29T02:04:15.580Z,15.70
2022-10-29T02:06:54.360Z,19.30
2022-10-29T02:09:32.806Z,18.95
2022-10-29T02:12:21.313Z,20.63
2022-10-29T02:14:55.362Z,18.50
2022-10-29T02:17:22.513Z,22.70
2022-10-29T02:19:49.535Z,21.33
2022-10-29T02:22:17.758Z,18.40
2022-10-29T02:24:44.719Z,18.08
2022-10-29T02:27:11.771Z,16.70
2022-10-29T02:29:38.756Z,19.88
2022-10-29T02:32:06.287Z,17.17
2022-10-29T02:34:33.237Z,19.17
2022-10-29T02:37:00.218Z,16.67
2022-10-29T02:39:27.179Z,20.77
2022-10-29T02:41:55.121Z,17.08
2022-10-29T02:44:22.087Z,18.80
2022-10-29T02:46:49.024Z,16.83
2022-10-29T02:49:15.989Z,18.30
2022-10-29T02:51:43.009Z,17.83
2022-10-29T02:54:10.142Z,16.08
2022-10-29T02:56:37.117Z,17.63
2022-10-29T02:59:06.413Z,18.05
2022-10-29T03:01:36.313Z,16.65
2022-10-29T03:04:03.427Z,19.27
2022-10-29T03:06:30.376Z,23.00
2022-10-29T03:08:57.506Z,22.33
2022-10-29T03:11:24.509Z,20.98
2022-10-29T03:13:51.493Z,19.60
2022-10-29T03:16:18.523Z,26.02
2022-10-29T03:18:45.504Z,22.42
2022-10-29T03:21:12.542Z,19.45
2022-10-29T03:23:39.550Z,19.58
2022-10-29T03:26:06.583Z,21.35
2022-10-29T03:28:33.831Z,21.75
2022-10-29T03:31:00.876Z,15.02
2022-10-29T03:33:28.565Z,21.60
2022-10-29T03:36:04.096Z,18.83
2022-10-29T03:38:31.436Z,19.35
2022-10-29T03:40:58.661Z,21.13
2022-10-29T03:43:26.338Z,23.42
2022-10-29T03:45:55.302Z,20.90
2022-10-29T03:48:23.088Z,22.65
2022-10-29T03:51:08.342Z,20.20
2022-10-29T03:53:36.668Z,18.70
2022-10-29T03:56:04.932Z,20.48
2022-10-29T03:58:31.883Z,22.45
2022-10-29T04:01:04.870Z,21.65
2022-10-29T04:03:34.010Z,20.75
2022-10-29T04:06:03.455Z,22.83
2022-10-29T04:08:30.430Z,29.23
2022-10-29T04:10:57.384Z,20.88
2022-10-29T04:13:24.397Z,23.40
2022-10-29T04:15:55.560Z,17.73
2022-10-29T04:18:24.944Z,23.17
2022-10-29T04:29:15.323Z,17.95
2022-10-29T04:31:42.289Z,22.55
2022-10-29T04:34:09.356Z,22.05
2022-10-29T04:36:36.585Z,21.13
2022-10-29T04:39:04.293Z,18.88
2022-10-29T04:41:31.382Z,21.50
2022-10-29T04:43:58.467Z,20.95
2022-10-29T04:46:25.532Z,24.98
2022-10-29T04:48:52.508Z,21.00
2022-10-29T04:51:21.667Z,24.08
2022-10-29T04:53:49.489Z,26.60
2022-10-29T04:56:17.074Z,23.98
2022-10-29T04:58:44.506Z,26.15
2022-10-29T05:01:11.723Z,17.00
2022-10-29T05:03:38.907Z,22.42
2022-10-29T05:06:07.450Z,23.25
2022-10-29T05:08:34.805Z,20.02
2022-10-29T05:11:03.937Z,23.20
2022-10-29T05:13:31.682Z,21.17
2022-10-29T05:15:58.835Z,18.52
2022-10-29T05:18:26.364Z,27.35
2022-10-29T05:20:55.268Z,19.58
2022-10-29T05:23:23.015Z,23.27
2022-10-29T05:25:51.471Z,18.85
2022-10-29T05:28:21.524Z,17.48
2022-10-29T05:30:52.864Z,16.33
2022-10-29T05:33:22.908Z,24.58
2022-10-29T05:35:50.068Z,17.55
2022-10-29T05:38:17.812Z,17.23
2022-10-29T05:40:45.620Z,23.40
2022-10-29T05:43:15.078Z,16.13
2022-10-29T05:45:43.076Z,15.63
2022-10-29T05:50:40.096Z,14.65
2022-10-29T05:53:11.020Z,16.83
2022-10-29T05:55:38.349Z,19.65
2022-10-29T05:58:09.758Z,17.80
2022-10-29T06:00:39.796Z,21.58
2022-10-29T06:03:33.372Z,19.73
2022-10-29T06:06:00.474Z,17.73
2022-10-29T06:08:27.581Z,13.88
2022-10-29T06:10:54.561Z,18.08
2022-10-29T06:13:22.504Z,19.00
2022-10-29T06:15:50.451Z,20.95
2022-10-29T06:18:17.544Z,22.40
2022-10-29T06:20:44.670Z,15.93
2022-10-29T06:23:12.205Z,16.77
2022-10-29T06:25:39.402Z,18.15
2022-10-29T06:28:12.337Z,15.70
2022-10-29T06:30:39.356Z,16.30
2022-10-29T06:33:06.487Z,15.48
2022-10-29T06:38:09.372Z,14.20
2022-10-29T06:40:39.729Z,14.50
2022-10-29T06:43:09.855Z,14.80
2022-10-29T06:45:37.808Z,12.88
2022-10-29T06:48:08.370Z,11.90
2022-10-29T06:50:35.395Z,13.20
2022-10-29T06:53:08.177Z,12.20
2022-10-29T06:55:35.564Z,13.77
2022-10-29T06:58:03.982Z,10.30
2022-10-29T07:00:32.450Z,12.80
2022-10-29T07:03:00.683Z,14.18
2022-10-29T07:05:28.027Z,11.77
2022-10-29T07:07:59.530Z,13.73
2022-10-29T07:10:29.185Z,16.83
2022-10-29T07:12:56.734Z,11.63
2022-10-29T07:15:27.356Z,13.20
2022-10-29T07:18:05.448Z,11.75
2022-10-29T07:20:34.618Z,13.15
2022-10-29T07:23:01.642Z,10.25
2022-10-29T07:25:30.521Z,10.13
2022-10-29T07:28:07.537Z,8.73
2022-10-29T07:30:34.792Z,9.57
2022-10-29T07:33:01.773Z,8.77
2022-10-29T07:35:28.808Z,8.38
2022-10-29T07:38:05.171Z,7.93
2022-10-29T07:40:40.602Z,9.57
2022-10-29T07:43:09.232Z,8.80
2022-10-29T07:45:36.218Z,8.10
2022-10-29T07:48:05.511Z,9.07
2022-10-29T07:50:32.724Z,9.30
2022-10-29T07:53:01.178Z,10.73
2022-10-29T07:58:02.668Z,7.57
2022-10-29T08:00:34.644Z,9.00
2022-10-29T08:03:01.931Z,7.28
2022-10-29T08:05:30.382Z,7.25
2022-10-29T08:07:58.974Z,7.15
2022-10-29T08:10:26.947Z,8.55
2022-10-29T08:12:57.213Z,6.80
2022-10-29T08:15:25.976Z,10.45
2022-10-29T08:17:53.536Z,9.05
2022-10-29T08:20:21.804Z,9.82
2022-10-29T08:22:48.909Z,7.57
2022-10-29T08:25:17.148Z,8.38
2022-10-29T08:27:44.513Z,9.10
2022-10-29T08:30:13.939Z,7.95
2022-10-29T08:32:47.332Z,11.30
2022-10-29T08:35:14.974Z,6.55
2022-10-29T08:37:44.250Z,7.50
2022-10-29T08:40:37.183Z,9.27
2022-10-29T08:43:31.882Z,10.07
2022-10-29T08:46:01.243Z,8.52
2022-10-29T08:48:34.009Z,8.68
2022-10-29T08:51:23.194Z,8.23
2022-10-29T08:54:10.215Z,7.90
2022-10-29T08:56:43.492Z,9.77
2022-10-29T08:59:31.696Z,9.02
2022-10-29T09:01:59.028Z,7.28
2022-10-29T09:04:34.959Z,6.78
2022-10-29T09:07:34.698Z,8.10
2022-10-29T09:10:36.458Z,6.85
2022-10-29T09:13:48.035Z,7.53
2022-10-29T09:16:30.400Z,6.75
2022-10-29T09:19:15.087Z,5.45
2022-10-29T09:22:05.788Z,7.90
2022-10-29T09:24:50.316Z,6.88
2022-10-29T09:27:48.129Z,12.10
2022-10-29T09:30:21.200Z,6.30
2022-10-29T09:33:00.410Z,6.90
2022-10-29T09:35:48.913Z,6.60
2022-10-29T09:38:24.316Z,7.70
2022-10-29T09:40:51.813Z,7.20
2022-10-29T09:43:23.298Z,7.20
2022-10-29T09:46:03.312Z,6.18
2022-10-29T09:48:37.192Z,9.18
2022-10-29T09:51:34.090Z,8.05
2022-10-29T09:54:01.646Z,8.70
2022-10-29T09:56:28.714Z,7.05
2022-10-29T09:59:24.573Z,6.80
2022-10-29T10:01:51.901Z,6.75
2022-10-29T10:04:36.560Z,7.18
2022-10-29T10:07:11.407Z,8.70
2022-10-29T10:09:55.132Z,7.80
2022-10-29T10:12:26.578Z,9.43
2022-10-29T10:15:06.220Z,7.73
2022-10-29T10:18:06.871Z,9.00
2022-10-29T10:20:42.129Z,8.35
2022-10-29T10:23:22.740Z,5.97
2022-10-29T10:25:51.747Z,6.17
2022-10-29T10:28:21.800Z,6.63
2022-10-29T10:31:15.325Z,5.20
2022-10-29T10:33:56.441Z,9.23
2022-10-29T10:36:30.321Z,7.00
2022-10-29T10:39:01.012Z,7.80
2022-10-29T10:41:30.756Z,5.63
2022-10-29T10:44:04.211Z,6.67
2022-10-29T10:46:39.148Z,5.27
2022-10-29T10:49:37.382Z,7.87
2022-10-29T10:52:12.829Z,6.60
2022-10-29T10:54:45.476Z,7.17
2022-10-29T10:57:12.809Z,5.10
2022-10-29T10:59:59.586Z,7.20
2022-10-29T11:02:47.696Z,6.47
2022-10-29T11:05:22.970Z,5.20
2022-10-29T11:08:00.494Z,4.80
2022-10-29T11:10:59.254Z,10.47
2022-10-29T11:13:29.791Z,7.60
2022-10-29T11:16:28.133Z,6.20
2022-10-29T11:19:07.555Z,6.53
2022-10-29T11:21:43.657Z,5.50
2022-10-29T11:24:10.635Z,7.93
2022-10-29T11:26:49.049Z,5.93
2022-10-29T11:29:16.023Z,5.00
2022-10-29T11:31:56.684Z,6.47
2022-10-29T11:34:54.224Z,7.73
2022-10-29T11:37:39.704Z,7.70
2022-10-29T11:40:21.803Z,8.10
2022-10-29T11:42:48.922Z,6.90
2022-10-29T11:45:21.212Z,8.70
2022-10-29T11:48:21.496Z,7.00
2022-10-29T11:51:07.548Z,6.60
2022-10-29T11:53:34.703Z,7.73
2022-10-29T11:56:22.774Z,7.73
2022-10-29T11:59:07.777Z,6.13
2022-10-29T12:01:43.434Z,6.93
2022-10-29T12:04:45.605Z,7.07
2022-10-29T12:07:17.928Z,7.30
2022-10-29T12:09:50.724Z,10.10
2022-10-29T12:12:43.743Z,7.73
2022-10-29T12:15:19.501Z,7.07
2022-10-29T12:18:04.584Z,9.43
2022-10-29T12:20:38.752Z,8.73
2022-10-29T12:23:25.753Z,7.20
2022-10-29T12:26:06.512Z,9.13
2022-10-29T12:28:49.694Z,8.70
2022-10-29T12:31:19.722Z,8.73
2022-10-29T12:34:08.702Z,9.87
2022-10-29T12:37:18.365Z,9.87
2022-10-29T12:39:50.684Z,9.33
2022-10-29T12:42:26.666Z,8.03
2022-10-29T12:45:02.451Z,10.23
2022-10-29T12:47:47.111Z,8.80
2022-10-29T12:50:53.734Z,10.37
2022-10-29T12:53:44.999Z,11.80
2022-10-29T12:56:16.324Z,11.57
2022-10-29T12:58:53.076Z,10.07
2022-10-29T13:01:38.220Z,12.27
2022-10-29T13:04:25.744Z,9.90
2022-10-29T13:06:58.935Z,12.60
2022-10-29T13:09:38.034Z,10.77
2022-10-29T13:12:10.563Z,14.00
2022-10-29T13:14:56.018Z,14.60
2022-10-29T13:17:34.086Z,13.83
2022-10-29T13:20:06.430Z,17.40
2022-10-29T13:22:51.629Z,14.30
2022-10-29T13:25:33.709Z,14.20
2022-10-29T13:28:20.905Z,17.47
2022-10-29T13:30:50.554Z,15.77
2022-10-29T13:33:26.852Z,17.60
2022-10-29T13:35:58.050Z,13.77
2022-10-29T13:39:04.218Z,16.60
2022-10-29T13:41:44.778Z,15.53
2022-10-29T13:44:12.919Z,16.60
2022-10-29T13:46:57.207Z,21.93
2022-10-29T13:49:31.873Z,20.43
2022-10-29T13:52:12.396Z,16.30
2022-10-29T13:55:02.044Z,20.93
2022-10-29T13:57:52.054Z,18.03
2022-10-29T14:00:21.120Z,20.00
2022-10-29T14:02:50.830Z,21.43
2022-10-29T14:05:23.232Z,24.17
2022-10-29T14:08:14.274Z,23.37
2022-10-29T14:10:41.309Z,23.70
2022-10-29T14:13:37.185Z,26.50
2022-10-29T14:16:06.882Z,28.70
2022-10-29T14:18:39.300Z,24.90
2022-10-29T14:21:31.730Z,28.00
2022-10-29T14:24:07.535Z,28.63
2022-10-29T14:26:40.403Z,26.63
2022-10-29T14:29:25.209Z,27.60
2022-10-29T14:32:12.202Z,27.87
2022-10-29T14:34:42.223Z,30.33
2022-10-29T14:37:19.152Z,34.27
2022-10-29T14:39:58.825Z,34.27
2022-10-29T14:42:29.283Z,34.93
2022-10-29T14:44:58.697Z,36.57
2022-10-29T14:47:39.025Z,36.37
2022-10-29T14:50:17.637Z,39.60
2022-10-29T14:52:53.966Z,36.75
2022-10-29T14:55:32.042Z,36.70
2022-10-29T14:58:07.685Z,44.65
2022-10-29T15:00:37.437Z,39.33
2022-10-29T15:03:07.182Z,43.37
2022-10-29T15:05:36.700Z,44.50
2022-10-29T15:08:06.224Z,46.07
2022-10-29T15:10:44.282Z,51.47
2022-10-29T15:13:34.609Z,41.17
2022-10-29T15:16:10.072Z,47.80
2022-10-29T15:18:38.152Z,44.07
2022-10-29T15:21:05.977Z,43.63
2022-10-29T15:23:36.967Z,44.88
2022-10-29T15:26:16.348Z,47.65
2022-10-29T15:28:45.625Z,47.45
2022-10-29T15:31:22.398Z,42.50
2022-10-29T15:33:55.354Z,45.33
2022-10-29T15:36:22.410Z,37.17
2022-10-29T15:38:52.347Z,42.03
2022-10-29T15:41:44.054Z,46.25
2022-10-29T15:44:30.913Z,42.00
2022-10-29T15:47:01.136Z,38.60
2022-10-29T15:49:32.376Z,44.17
2022-10-29T15:52:00.995Z,44.90
2022-10-29T15:54:29.147Z,39.55
2022-10-29T15:56:56.296Z,37.45
2022-10-29T15:59:25.835Z,38.90
2022-10-29T16:01:53.142Z,44.22
2022-10-29T16:04:20.246Z,33.15
2022-10-29T16:06:47.298Z,34.58
2022-10-29T16:09:20.685Z,36.80
2022-10-29T16:11:48.517Z,34.95
2022-10-29T16:14:15.490Z,34.67
2022-10-29T16:16:42.438Z,40.58
2022-10-29T16:19:09.410Z,39.50
2022-10-29T16:21:36.513Z,39.45
2022-10-29T16:24:03.635Z,33.45
2022-10-29T16:26:30.637Z,35.80
2022-10-29T16:28:57.601Z,34.70
2022-10-29T16:31:27.639Z,36.28
2022-10-29T16:33:58.176Z,35.35
2022-10-29T16:36:25.887Z,45.55
2022-10-29T16:38:52.870Z,34.80
2022-10-29T16:41:20.976Z,34.08
2022-10-29T16:43:48.695Z,38.75
2022-10-29T16:46:15.839Z,33.45
2022-10-29T16:48:43.673Z,38.28
2022-10-29T16:51:10.984Z,34.83
2022-10-29T16:53:38.101Z,40.78
2022-10-29T16:56:06.065Z,33.50
2022-10-29T16:58:33.611Z,31.80
2022-10-29T17:01:11.125Z,32.35
2022-10-29T17:03:41.739Z,37.90
2022-10-29T17:06:12.650Z,31.63
2022-10-29T17:08:39.748Z,30.33
2022-10-29T17:11:10.350Z,40.88
2022-10-29T17:13:37.935Z,33.55
2022-10-29T17:16:10.053Z,31.83
2022-10-29T17:18:37.119Z,35.05
2022-10-29T17:21:04.527Z,33.38
2022-10-29T17:23:34.206Z,33.97
2022-10-29T17:26:01.309Z,36.40
2022-10-29T17:28:29.349Z,37.28
2022-10-29T17:30:56.851Z,32.78
2022-10-29T17:33:24.027Z,33.70
2022-10-29T17:36:00.125Z,33.63
2022-10-29T17:38:28.011Z,29.90
2022-10-29T17:40:55.191Z,34.78
2022-10-29T17:43:22.782Z,39.35
2022-10-29T17:45:50.753Z,38.33
2022-10-29T17:48:22.378Z,34.67
2022-10-29T17:50:58.671Z,38.60
2022-10-29T17:53:27.037Z,39.70
2022-10-29T17:56:01.162Z,33.05
2022-10-29T17:58:29.650Z,33.55
2022-10-29T18:01:04.612Z,37.20
2022-10-29T18:03:32.138Z,34.50
2022-10-29T18:06:01.736Z,34.83
2022-10-29T18:08:29.708Z,31.48
2022-10-29T18:11:10.572Z,33.60
2022-10-29T18:13:41.690Z,33.63
2022-10-29T18:16:10.944Z,34.15
2022-10-29T18:18:54.294Z,34.22
2022-10-29T18:21:28.070Z,27.70
2022-10-29T18:23:57.076Z,30.45
2022-10-29T18:26:27.668Z,37.72
2022-10-29T18:28:56.102Z,34.08
2022-10-29T18:31:31.173Z,32.88
2022-10-29T18:34:00.130Z,33.53
2022-10-29T18:36:29.936Z,32.63
2022-10-29T18:38:58.974Z,30.70
2022-10-29T18:41:26.919Z,27.98
2022-10-29T18:43:55.061Z,27.83
2022-10-29T18:46:22.692Z,29.67
2022-10-29T18:48:51.236Z,32.97
2022-10-29T18:51:21.925Z,32.08
2022-10-29T18:53:48.950Z,35.15
2022-10-29T18:56:18.666Z,34.03
2022-10-29T18:58:46.617Z,30.40
2022-10-29T19:01:19.772Z,29.48
2022-10-29T19:03:55.064Z,32.35
2022-10-29T19:06:24.514Z,31.90
2022-10-29T19:08:52.537Z,31.85
2022-10-29T19:11:22.475Z,28.50
2022-10-29T19:13:54.719Z,31.77
2022-10-29T19:16:22.812Z,23.20
2022-10-29T19:18:58.365Z,38.58
2022-10-29T19:21:26.848Z,26.90
2022-10-29T19:23:59.976Z,30.85
2022-10-29T19:26:29.676Z,30.00
2022-10-29T19:28:59.093Z,29.35
2022-10-29T19:31:28.376Z,25.33
2022-10-29T19:33:58.447Z,28.20
2022-10-29T19:36:27.133Z,31.90
2022-10-29T19:38:54.708Z,25.85
2022-10-29T19:41:22.077Z,28.38
2022-10-29T19:43:49.625Z,23.15
2022-10-29T19:46:22.938Z,26.27
2022-10-29T19:48:55.585Z,26.98
2022-10-29T19:51:23.893Z,28.20
2022-10-29T19:53:54.627Z,25.55
2022-10-29T19:56:22.463Z,20.10
2022-10-29T19:58:50.361Z,22.48
2022-10-29T20:01:19.976Z,21.55
2022-10-29T20:03:48.251Z,21.27
2022-10-29T20:06:16.925Z,19.92
2022-10-29T20:08:48.420Z,21.17
2022-10-29T20:11:17.465Z,22.30
2022-10-29T20:13:45.928Z,22.77
2022-10-29T20:16:17.445Z,23.90
2022-10-29T20:18:44.638Z,19.60
2022-10-29T20:21:13.923Z,20.75
2022-10-29T20:23:41.573Z,17.75
2022-10-29T20:26:09.409Z,20.65
2022-10-29T20:28:36.888Z,23.23
2022-10-29T20:31:11.086Z,17.00
2022-10-29T20:33:38.646Z,21.02
2022-10-29T20:36:06.179Z,19.85
2022-10-29T20:38:33.438Z,21.45
2022-10-29T20:41:00.717Z,21.58
2022-10-29T20:43:28.928Z,22.65
2022-10-29T20:46:03.285Z,25.02
2022-10-29T20:48:31.026Z,25.10
2022-10-29T20:50:58.062Z,26.70
2022-10-29T20:53:25.019Z,23.75
2022-10-29T20:55:52.134Z,27.63
2022-10-29T20:58:20.470Z,23.33
2022-10-29T21:00:48.443Z,24.85
2022-10-29T21:03:16.686Z,20.08
2022-10-29T21:05:44.134Z,23.48
2022-10-29T21:08:13.832Z,27.20
2022-10-29T21:10:40.873Z,28.38
2022-10-29T21:13:07.803Z,25.08
2022-10-29T21:15:37.594Z,25.85
2022-10-29T21:18:04.963Z,25.40
2022-10-29T21:20:32.739Z,24.65
2022-10-29T21:22:59.972Z,26.05
2022-10-29T21:25:27.381Z,27.73
2022-10-29T21:27:55.671Z,27.20
2022-10-29T21:30:23.002Z,26.73
2022-10-29T21:32:49.977Z,23.05
2022-10-29T21:35:17.007Z,27.88
2022-10-29T21:37:44.456Z,32.58
2022-10-29T21:40:11.746Z,24.42
2022-10-29T21:42:38.858Z,23.40
2022-10-29T21:45:06.405Z,25.30
2022-10-29T21:47:33.389Z,31.05
2022-10-29T21:50:00.375Z,26.77
2022-10-29T21:52:27.368Z,26.73
2022-10-29T21:54:54.394Z,25.02
2022-10-29T21:57:21.394Z,26.27
2022-10-29T21:59:48.374Z,25.77
2022-10-29T22:02:15.383Z,28.95
2022-10-29T22:04:42.999Z,29.90
2022-10-29T22:07:11.829Z,25.38
2022-10-29T22:09:38.888Z,24.35
2022-10-29T22:12:06.393Z,32.55
2022-10-29T22:14:33.313Z,24.90
2022-10-29T22:17:00.250Z,23.65
2022-10-29T22:19:27.191Z,21.88
2022-10-29T22:21:55.989Z,20.92
2022-10-29T22:24:22.893Z,28.65
2022-10-29T22:26:49.825Z,23.27
2022-10-29T22:29:16.729Z,27.08
2022-10-29T22:31:43.628Z,22.13
2022-10-29T22:34:10.611Z,21.42
2022-10-29T22:36:37.592Z,25.17
2022-10-29T22:39:04.612Z,24.85
2022-10-29T22:41:31.737Z,26.77
2022-10-29T22:43:59.523Z,21.58
2022-10-29T22:46:27.854Z,24.27
2022-10-29T22:48:55.025Z,25.33
2022-10-29T22:51:25.154Z,24.05
2022-10-29T22:53:53.631Z,27.60
2022-10-29T22:56:24.519Z,22.63
2022-10-29T22:58:51.509Z,22.83
2022-10-29T23:01:24.647Z,24.17
2022-10-29T23:03:52.310Z,23.92
2022-10-29T23:06:21.141Z,26.52
2022-10-29T23:08:50.649Z,24.48
2022-10-29T23:11:20.935Z,41.15
2022-10-29T23:14:00.367Z,30.42
2022-10-29T23:16:29.537Z,25.83
2022-10-29T23:18:58.544Z,22.17
2022-10-29T23:21:26.070Z,23.63
2022-10-29T23:23:53.328Z,25.52
2022-10-29T23:26:21.821Z,27.38
2022-10-29T23:28:49.438Z,20.23
2022-10-29T23:31:19.046Z,24.10
2022-10-29T23:33:48.254Z,18.00
2022-10-29T23:36:16.531Z,18.83
2022-10-29T23:38:43.845Z,23.25
2022-10-29T23:41:11.107Z,17.55
2022-10-29T23:43:38.585Z,19.92
2022-10-29T23:46:05.973Z,19.60
2022-10-29T23:48:32.952Z,19.63
2022-10-29T23:51:00.056Z,20.98
2022-10-29T23:53:27.678Z,18.63
2022-10-29T23:55:54.693Z,26.25
2022-10-29T23:58:21.707Z,25.55
